Dexter, OR (97431)

10:52 PM PST on November 25, 2014 (GMT -0800)
Lost Creek | Change Station
CLOSE
Current Station
Personal Weather Station
Location: Dexter, OR
Elevation: 700 ft
Nearby Weather Stations

Elev 700 ft 43.92 °N, 122.82 °W | Updated 2 minutes ago

Partly Cloudy
Partly Cloudy
49.4 °F
Feels Like 49 °F
N
0.0
Wind Variable Wind from SE
Gusts 0.0 mph

Today
High -- | Low -- °F
--% Chance of Precip.
Yesterday
High -- | Low -- °F
Precip. -- in
7:18 AM 4:37 PM
Waxing Crescent, 17% visible
Pressure 30.33 in
Visibility 10.0 miles
Clouds Scattered Clouds 4600 ft
Windchill 49 °F
Dew Point 49 °F
Humidity 98%
Rainfall 0.00 in
Snow Depth Not available.
UV 1.0 out of 12
Pollen .10 out of 12
Air Quality Not available.
Flu Activity Not available.
METAR KEUG 260554Z 19004KT 10SM SCT046 11/09 A3033 RMK AO2 SLP271 T01110089 10150 20111 56005

More Conditions Fewer Conditions

Pressure 30.33 in
Visibility 10.0 miles
Clouds Scattered Clouds 4600 ft
Windchill 49 °F
Dew Point 49 °F
Humidity 98%
Rainfall 0.00 in
Snow Depth Not available.
UV 1.0 out of 12
Pollen .10 out of 12
Air Quality Not available.
Flu Activity Not available.
METAR KEUG 260554Z 19004KT 10SM SCT046 11/09 A3033 RMK AO2 SLP271 T01110089 10150 20111 56005

More Conditions Fewer Conditions

10-Day Weather Forecast

Almanac

Astronomy

Nov. 25, 2014 Rise Set
Actual Time
Civil Twilight
Nautical Twilight
Astronomical Twilight
Moon
Length of Visible Light
Length of Day
Tomorrow will be .
, % of the Moon is Illuminated

Today's Extremes

State Highs State Lows

Community

WunderPhotos

Upload Photos

1,773,691 photos uploaded!

WunderBlogs® & News

Nearby

Air Quality

  Air Quality AQ Index Pollutant
Not available.

Snow Depth

Station Depth Elevation

Earthquake Activity

City Distance Mag. Time & Date
Minimum magnitude displayed is 2.5.

Coastal Water Temperatures

Place Temperature

Nearby Weather Stations